sensor_id;sensor_type;location;lat;lon;timestamp;P1;durP1;ratioP1;P2;durP2;ratioP2
6828;SDS011;17930;48.592;8.868;2022-08-21T00:00:20;3.70;;;2.37;;
6828;SDS011;17930;48.592;8.868;2022-08-21T00:02:50;6.13;;;3.27;;
6828;SDS011;17930;48.592;8.868;2022-08-21T00:05:18;5.20;;;2.63;;
6828;SDS011;17930;48.592;8.868;2022-08-21T00:07:45;4.07;;;2.73;;
6828;SDS011;17930;48.592;8.868;2022-08-21T00:10:12;6.13;;;3.17;;
6828;SDS011;17930;48.592;8.868;2022-08-21T00:12:39;4.17;;;2.83;;
6828;SDS011;17930;48.592;8.868;2022-08-21T00:15:07;4.27;;;2.70;;
6828;SDS011;17930;48.592;8.868;2022-08-21T00:17:37;4.37;;;2.90;;
6828;SDS011;17930;48.592;8.868;2022-08-21T00:20:04;3.80;;;2.80;;
6828;SDS011;17930;48.592;8.868;2022-08-21T00:22:34;4.80;;;2.90;;
6828;SDS011;17930;48.592;8.868;2022-08-21T00:25:01;6.30;;;3.17;;
6828;SDS011;17930;48.592;8.868;2022-08-21T00:27:28;5.50;;;2.73;;
6828;SDS011;17930;48.592;8.868;2022-08-21T00:29:55;5.10;;;2.77;;
6828;SDS011;17930;48.592;8.868;2022-08-21T00:32:22;5.97;;;2.90;;
6828;SDS011;17930;48.592;8.868;2022-08-21T00:34:53;4.93;;;3.03;;
6828;SDS011;17930;48.592;8.868;2022-08-21T00:37:20;7.20;;;4.93;;
6828;SDS011;17930;48.592;8.868;2022-08-21T00:39:47;4.43;;;3.20;;
6828;SDS011;17930;48.592;8.868;2022-08-21T00:42:15;5.43;;;3.70;;
6828;SDS011;17930;48.592;8.868;2022-08-21T00:44:43;4.77;;;3.27;;
6828;SDS011;17930;48.592;8.868;2022-08-21T00:47:09;6.40;;;3.10;;
6828;SDS011;17930;48.592;8.868;2022-08-21T00:49:37;3.17;;;2.70;;
6828;SDS011;17930;48.592;8.868;2022-08-21T00:52:07;5.23;;;3.10;;
6828;SDS011;17930;48.592;8.868;2022-08-21T00:54:38;4.23;;;3.10;;
6828;SDS011;17930;48.592;8.868;2022-08-21T00:57:07;3.13;;;2.70;;
6828;SDS011;17930;48.592;8.868;2022-08-21T00:59:39;5.77;;;3.07;;
6828;SDS011;17930;48.592;8.868;2022-08-21T01:02:07;3.33;;;3.03;;
6828;SDS011;17930;48.592;8.868;2022-08-21T01:04:40;5.03;;;3.07;;
6828;SDS011;17930;48.592;8.868;2022-08-21T01:07:08;4.60;;;3.00;;
6828;SDS011;17930;48.592;8.868;2022-08-21T01:09:35;5.73;;;4.07;;
6828;SDS011;17930;48.592;8.868;2022-08-21T01:12:03;4.93;;;3.40;;
6828;SDS011;17930;48.592;8.868;2022-08-21T01:14:30;5.83;;;2.90;;
6828;SDS011;17930;48.592;8.868;2022-08-21T01:16:57;3.90;;;3.20;;
6828;SDS011;17930;48.592;8.868;2022-08-21T01:19:31;4.17;;;3.50;;
6828;SDS011;17930;48.592;8.868;2022-08-21T01:22:00;5.20;;;3.67;;
6828;SDS011;17930;48.592;8.868;2022-08-21T01:24:28;3.80;;;3.10;;
6828;SDS011;17930;48.592;8.868;2022-08-21T01:26:56;4.20;;;3.80;;
6828;SDS011;17930;48.592;8.868;2022-08-21T01:29:26;5.20;;;3.90;;
6828;SDS011;17930;48.592;8.868;2022-08-21T01:31:58;6.47;;;3.70;;
6828;SDS011;17930;48.592;8.868;2022-08-21T01:34:26;6.83;;;3.87;;
6828;SDS011;17930;48.592;8.868;2022-08-21T01:36:53;7.23;;;4.07;;
6828;SDS011;17930;48.592;8.868;2022-08-21T01:39:21;4.50;;;4.00;;
6828;SDS011;17930;48.592;8.868;2022-08-21T01:41:48;5.13;;;3.97;;
6828;SDS011;17930;48.592;8.868;2022-08-21T01:44:15;5.50;;;3.97;;
6828;SDS011;17930;48.592;8.868;2022-08-21T01:46:41;4.57;;;3.87;;
6828;SDS011;17930;48.592;8.868;2022-08-21T01:49:08;6.30;;;4.07;;
6828;SDS011;17930;48.592;8.868;2022-08-21T01:51:35;6.20;;;4.13;;
6828;SDS011;17930;48.592;8.868;2022-08-21T01:54:02;7.30;;;4.70;;
6828;SDS011;17930;48.592;8.868;2022-08-21T01:56:38;5.13;;;4.60;;
6828;SDS011;17930;48.592;8.868;2022-08-21T01:59:06;7.33;;;4.20;;
6828;SDS011;17930;48.592;8.868;2022-08-21T02:01:34;6.50;;;4.70;;
6828;SDS011;17930;48.592;8.868;2022-08-21T02:04:01;6.17;;;4.33;;
6828;SDS011;17930;48.592;8.868;2022-08-21T02:06:28;4.90;;;4.00;;
6828;SDS011;17930;48.592;8.868;2022-08-21T02:08:56;4.80;;;4.30;;
6828;SDS011;17930;48.592;8.868;2022-08-21T02:11:23;9.67;;;4.17;;
6828;SDS011;17930;48.592;8.868;2022-08-21T02:13:52;5.23;;;3.93;;
6828;SDS011;17930;48.592;8.868;2022-08-21T02:16:18;4.87;;;4.40;;
6828;SDS011;17930;48.592;8.868;2022-08-21T02:18:45;7.57;;;4.63;;
6828;SDS011;17930;48.592;8.868;2022-08-21T02:21:13;5.23;;;4.40;;
6828;SDS011;17930;48.592;8.868;2022-08-21T02:23:40;7.20;;;5.43;;
6828;SDS011;17930;48.592;8.868;2022-08-21T02:26:07;5.23;;;4.50;;
6828;SDS011;17930;48.592;8.868;2022-08-21T02:28:35;5.80;;;4.63;;
6828;SDS011;17930;48.592;8.868;2022-08-21T02:31:04;5.50;;;4.77;;
6828;SDS011;17930;48.592;8.868;2022-08-21T02:33:32;7.37;;;5.60;;
6828;SDS011;17930;48.592;8.868;2022-08-21T02:36:01;6.10;;;5.20;;
6828;SDS011;17930;48.592;8.868;2022-08-21T02:38:30;7.13;;;5.33;;
6828;SDS011;17930;48.592;8.868;2022-08-21T02:41:00;7.23;;;5.20;;
6828;SDS011;17930;48.592;8.868;2022-08-21T02:43:30;7.07;;;5.60;;
6828;SDS011;17930;48.592;8.868;2022-08-21T02:45:57;5.90;;;5.17;;
6828;SDS011;17930;48.592;8.868;2022-08-21T02:48:43;8.77;;;5.40;;
6828;SDS011;17930;48.592;8.868;2022-08-21T02:51:13;6.00;;;4.67;;
6828;SDS011;17930;48.592;8.868;2022-08-21T02:53:50;4.90;;;4.40;;
6828;SDS011;17930;48.592;8.868;2022-08-21T02:56:18;6.07;;;5.00;;
6828;SDS011;17930;48.592;8.868;2022-08-21T02:58:47;5.57;;;4.87;;
6828;SDS011;17930;48.592;8.868;2022-08-21T03:01:16;5.90;;;4.37;;
6828;SDS011;17930;48.592;8.868;2022-08-21T03:03:45;5.87;;;4.70;;
6828;SDS011;17930;48.592;8.868;2022-08-21T03:06:15;7.83;;;5.03;;
6828;SDS011;17930;48.592;8.868;2022-08-21T03:08:44;13.00;;;4.63;;
6828;SDS011;17930;48.592;8.868;2022-08-21T03:11:11;5.60;;;4.97;;
6828;SDS011;17930;48.592;8.868;2022-08-21T03:13:39;6.10;;;5.40;;
6828;SDS011;17930;48.592;8.868;2022-08-21T03:16:06;6.50;;;4.90;;
6828;SDS011;17930;48.592;8.868;2022-08-21T03:18:35;10.17;;;6.10;;
6828;SDS011;17930;48.592;8.868;2022-08-21T03:21:03;7.27;;;4.57;;
6828;SDS011;17930;48.592;8.868;2022-08-21T03:23:31;7.67;;;4.83;;
6828;SDS011;17930;48.592;8.868;2022-08-21T03:25:58;7.60;;;5.00;;
6828;SDS011;17930;48.592;8.868;2022-08-21T03:28:50;6.97;;;5.00;;
6828;SDS011;17930;48.592;8.868;2022-08-21T03:32:06;6.20;;;4.80;;
6828;SDS011;17930;48.592;8.868;2022-08-21T03:34:43;7.53;;;5.30;;
6828;SDS011;17930;48.592;8.868;2022-08-21T03:37:38;6.97;;;5.20;;
6828;SDS011;17930;48.592;8.868;2022-08-21T03:44:10;6.33;;;5.20;;
6828;SDS011;17930;48.592;8.868;2022-08-21T03:46:38;5.80;;;4.60;;
6828;SDS011;17930;48.592;8.868;2022-08-21T03:49:05;8.07;;;4.80;;
6828;SDS011;17930;48.592;8.868;2022-08-21T03:51:32;7.63;;;4.43;;
6828;SDS011;17930;48.592;8.868;2022-08-21T03:54:12;5.10;;;4.60;;
6828;SDS011;17930;48.592;8.868;2022-08-21T03:57:26;6.40;;;4.80;;
6828;SDS011;17930;48.592;8.868;2022-08-21T04:00:22;5.23;;;4.30;;
6828;SDS011;17930;48.592;8.868;2022-08-21T04:03:13;7.43;;;4.20;;
6828;SDS011;17930;48.592;8.868;2022-08-21T04:06:23;6.00;;;4.40;;
6828;SDS011;17930;48.592;8.868;2022-08-21T04:12:43;7.10;;;4.87;;
6828;SDS011;17930;48.592;8.868;2022-08-21T04:15:13;7.27;;;5.13;;
6828;SDS011;17930;48.592;8.868;2022-08-21T04:17:39;5.83;;;4.90;;
6828;SDS011;17930;48.592;8.868;2022-08-21T04:20:06;8.23;;;4.37;;
6828;SDS011;17930;48.592;8.868;2022-08-21T04:22:34;9.27;;;5.17;;
6828;SDS011;17930;48.592;8.868;2022-08-21T04:25:02;8.07;;;5.17;;
6828;SDS011;17930;48.592;8.868;2022-08-21T04:27:29;8.33;;;4.73;;
6828;SDS011;17930;48.592;8.868;2022-08-21T04:29:56;6.50;;;4.67;;
6828;SDS011;17930;48.592;8.868;2022-08-21T04:32:22;6.33;;;5.03;;
6828;SDS011;17930;48.592;8.868;2022-08-21T04:34:49;7.97;;;5.60;;
6828;SDS011;17930;48.592;8.868;2022-08-21T04:37:16;7.47;;;5.30;;
6828;SDS011;17930;48.592;8.868;2022-08-21T04:39:43;8.33;;;5.70;;
6828;SDS011;17930;48.592;8.868;2022-08-21T04:42:11;6.37;;;5.10;;
6828;SDS011;17930;48.592;8.868;2022-08-21T04:44:37;6.83;;;4.80;;
6828;SDS011;17930;48.592;8.868;2022-08-21T04:47:04;6.83;;;5.57;;
6828;SDS011;17930;48.592;8.868;2022-08-21T04:49:32;7.23;;;4.67;;
6828;SDS011;17930;48.592;8.868;2022-08-21T04:51:58;9.27;;;5.57;;
6828;SDS011;17930;48.592;8.868;2022-08-21T04:54:25;7.60;;;4.97;;
6828;SDS011;17930;48.592;8.868;2022-08-21T04:56:52;7.17;;;5.07;;
6828;SDS011;17930;48.592;8.868;2022-08-21T04:59:24;6.50;;;5.47;;
6828;SDS011;17930;48.592;8.868;2022-08-21T05:01:54;6.27;;;4.57;;
6828;SDS011;17930;48.592;8.868;2022-08-21T05:04:22;4.80;;;4.30;;
6828;SDS011;17930;48.592;8.868;2022-08-21T05:06:53;9.83;;;4.80;;
6828;SDS011;17930;48.592;8.868;2022-08-21T05:09:23;5.23;;;4.73;;
6828;SDS011;17930;48.592;8.868;2022-08-21T05:11:51;9.07;;;5.23;;
6828;SDS011;17930;48.592;8.868;2022-08-21T05:14:18;5.97;;;5.10;;
6828;SDS011;17930;48.592;8.868;2022-08-21T05:16:46;8.27;;;5.00;;
6828;SDS011;17930;48.592;8.868;2022-08-21T05:19:13;7.77;;;5.90;;
6828;SDS011;17930;48.592;8.868;2022-08-21T05:21:41;5.17;;;4.30;;
6828;SDS011;17930;48.592;8.868;2022-08-21T05:24:09;6.90;;;5.30;;
6828;SDS011;17930;48.592;8.868;2022-08-21T05:26:36;8.93;;;5.33;;
6828;SDS011;17930;48.592;8.868;2022-08-21T05:29:04;9.33;;;5.40;;
6828;SDS011;17930;48.592;8.868;2022-08-21T05:31:30;7.57;;;5.63;;
6828;SDS011;17930;48.592;8.868;2022-08-21T05:33:58;7.80;;;5.07;;
6828;SDS011;17930;48.592;8.868;2022-08-21T05:36:26;9.57;;;5.10;;
6828;SDS011;17930;48.592;8.868;2022-08-21T05:38:52;6.23;;;5.30;;
6828;SDS011;17930;48.592;8.868;2022-08-21T05:41:19;6.57;;;4.87;;
6828;SDS011;17930;48.592;8.868;2022-08-21T05:43:46;7.00;;;4.73;;
6828;SDS011;17930;48.592;8.868;2022-08-21T05:46:12;8.67;;;5.07;;
6828;SDS011;17930;48.592;8.868;2022-08-21T05:48:39;5.40;;;4.60;;
6828;SDS011;17930;48.592;8.868;2022-08-21T05:51:08;7.03;;;5.00;;
6828;SDS011;17930;48.592;8.868;2022-08-21T05:53:36;6.20;;;4.47;;
6828;SDS011;17930;48.592;8.868;2022-08-21T05:56:04;7.40;;;4.70;;
6828;SDS011;17930;48.592;8.868;2022-08-21T05:58:32;8.03;;;5.17;;
6828;SDS011;17930;48.592;8.868;2022-08-21T06:01:00;7.27;;;4.80;;
6828;SDS011;17930;48.592;8.868;2022-08-21T06:03:28;6.87;;;4.93;;
6828;SDS011;17930;48.592;8.868;2022-08-21T06:05:57;6.90;;;5.07;;
6828;SDS011;17930;48.592;8.868;2022-08-21T06:08:25;6.80;;;4.47;;
6828;SDS011;17930;48.592;8.868;2022-08-21T06:10:54;5.00;;;4.00;;
6828;SDS011;17930;48.592;8.868;2022-08-21T06:13:26;6.57;;;3.83;;
6828;SDS011;17930;48.592;8.868;2022-08-21T06:16:00;6.00;;;4.10;;
6828;SDS011;17930;48.592;8.868;2022-08-21T06:18:28;8.57;;;4.10;;
6828;SDS011;17930;48.592;8.868;2022-08-21T06:20:55;6.93;;;3.80;;
6828;SDS011;17930;48.592;8.868;2022-08-21T06:23:21;4.83;;;3.10;;
6828;SDS011;17930;48.592;8.868;2022-08-21T06:25:49;4.60;;;3.70;;
6828;SDS011;17930;48.592;8.868;2022-08-21T06:28:16;4.33;;;3.70;;
6828;SDS011;17930;48.592;8.868;2022-08-21T06:30:43;4.50;;;2.80;;
6828;SDS011;17930;48.592;8.868;2022-08-21T06:33:10;6.27;;;3.43;;
6828;SDS011;17930;48.592;8.868;2022-08-21T06:35:37;5.77;;;3.40;;
6828;SDS011;17930;48.592;8.868;2022-08-21T06:38:03;6.60;;;3.13;;
6828;SDS011;17930;48.592;8.868;2022-08-21T06:40:30;5.13;;;3.53;;
6828;SDS011;17930;48.592;8.868;2022-08-21T06:43:04;3.63;;;3.27;;
6828;SDS011;17930;48.592;8.868;2022-08-21T06:45:32;5.23;;;4.03;;
6828;SDS011;17930;48.592;8.868;2022-08-21T06:47:59;5.73;;;3.67;;
6828;SDS011;17930;48.592;8.868;2022-08-21T06:50:25;5.40;;;3.30;;
6828;SDS011;17930;48.592;8.868;2022-08-21T06:52:57;3.37;;;2.93;;
6828;SDS011;17930;48.592;8.868;2022-08-21T06:55:26;4.33;;;3.23;;
6828;SDS011;17930;48.592;8.868;2022-08-21T06:57:52;6.13;;;3.53;;
6828;SDS011;17930;48.592;8.868;2022-08-21T07:00:20;6.27;;;3.63;;
6828;SDS011;17930;48.592;8.868;2022-08-21T07:02:47;8.30;;;3.40;;
6828;SDS011;17930;48.592;8.868;2022-08-21T07:05:14;3.83;;;3.07;;
6828;SDS011;17930;48.592;8.868;2022-08-21T07:07:41;8.23;;;3.37;;
6828;SDS011;17930;48.592;8.868;2022-08-21T07:10:08;3.60;;;2.80;;
6828;SDS011;17930;48.592;8.868;2022-08-21T07:12:35;6.17;;;3.43;;
6828;SDS011;17930;48.592;8.868;2022-08-21T07:15:02;5.70;;;2.77;;
6828;SDS011;17930;48.592;8.868;2022-08-21T07:17:30;5.37;;;2.80;;
6828;SDS011;17930;48.592;8.868;2022-08-21T07:19:57;5.10;;;2.83;;
6828;SDS011;17930;48.592;8.868;2022-08-21T07:22:24;3.30;;;2.50;;
6828;SDS011;17930;48.592;8.868;2022-08-21T07:24:52;6.90;;;1.87;;
6828;SDS011;17930;48.592;8.868;2022-08-21T07:27:19;3.10;;;2.37;;
6828;SDS011;17930;48.592;8.868;2022-08-21T07:29:46;4.50;;;2.60;;
6828;SDS011;17930;48.592;8.868;2022-08-21T07:32:13;3.40;;;2.50;;
6828;SDS011;17930;48.592;8.868;2022-08-21T07:34:42;5.43;;;2.50;;
6828;SDS011;17930;48.592;8.868;2022-08-21T07:37:09;4.13;;;2.20;;
6828;SDS011;17930;48.592;8.868;2022-08-21T07:39:35;6.80;;;2.43;;
6828;SDS011;17930;48.592;8.868;2022-08-21T07:42:03;3.77;;;2.07;;
6828;SDS011;17930;48.592;8.868;2022-08-21T07:44:30;4.00;;;2.10;;
6828;SDS011;17930;48.592;8.868;2022-08-21T07:46:56;5.03;;;2.30;;
6828;SDS011;17930;48.592;8.868;2022-08-21T07:49:23;4.13;;;2.53;;
6828;SDS011;17930;48.592;8.868;2022-08-21T07:51:51;4.33;;;2.50;;
6828;SDS011;17930;48.592;8.868;2022-08-21T07:54:18;3.80;;;2.00;;
6828;SDS011;17930;48.592;8.868;2022-08-21T07:56:45;7.27;;;2.77;;
6828;SDS011;17930;48.592;8.868;2022-08-21T07:59:11;3.77;;;2.23;;
6828;SDS011;17930;48.592;8.868;2022-08-21T08:01:38;3.20;;;2.00;;
6828;SDS011;17930;48.592;8.868;2022-08-21T08:04:05;4.37;;;2.77;;
6828;SDS011;17930;48.592;8.868;2022-08-21T08:06:32;3.93;;;2.40;;
6828;SDS011;17930;48.592;8.868;2022-08-21T08:09:00;4.37;;;2.50;;
6828;SDS011;17930;48.592;8.868;2022-08-21T08:11:28;4.30;;;2.50;;
6828;SDS011;17930;48.592;8.868;2022-08-21T08:13:55;6.67;;;2.80;;
6828;SDS011;17930;48.592;8.868;2022-08-21T08:16:23;5.33;;;2.70;;
6828;SDS011;17930;48.592;8.868;2022-08-21T08:18:50;6.20;;;2.30;;
6828;SDS011;17930;48.592;8.868;2022-08-21T08:21:17;5.00;;;2.20;;
6828;SDS011;17930;48.592;8.868;2022-08-21T08:23:46;3.13;;;2.10;;
6828;SDS011;17930;48.592;8.868;2022-08-21T08:26:14;5.37;;;2.40;;
6828;SDS011;17930;48.592;8.868;2022-08-21T08:28:41;4.50;;;2.40;;
6828;SDS011;17930;48.592;8.868;2022-08-21T08:31:08;5.20;;;2.60;;
6828;SDS011;17930;48.592;8.868;2022-08-21T08:33:35;5.80;;;2.50;;
6828;SDS011;17930;48.592;8.868;2022-08-21T08:36:01;2.90;;;2.07;;
6828;SDS011;17930;48.592;8.868;2022-08-21T08:38:28;7.50;;;2.57;;
6828;SDS011;17930;48.592;8.868;2022-08-21T08:40:58;4.10;;;2.57;;
6828;SDS011;17930;48.592;8.868;2022-08-21T08:43:39;5.17;;;2.60;;
6828;SDS011;17930;48.592;8.868;2022-08-21T08:46:10;10.23;;;2.70;;
6828;SDS011;17930;48.592;8.868;2022-08-21T08:48:43;4.93;;;2.70;;
6828;SDS011;17930;48.592;8.868;2022-08-21T08:51:16;5.77;;;2.53;;
6828;SDS011;17930;48.592;8.868;2022-08-21T08:53:49;4.57;;;2.50;;
6828;SDS011;17930;48.592;8.868;2022-08-21T08:56:22;3.17;;;2.17;;
6828;SDS011;17930;48.592;8.868;2022-08-21T08:58:55;4.60;;;2.87;;
6828;SDS011;17930;48.592;8.868;2022-08-21T09:01:25;2.87;;;2.10;;
6828;SDS011;17930;48.592;8.868;2022-08-21T09:03:52;5.30;;;2.60;;
6828;SDS011;17930;48.592;8.868;2022-08-21T09:06:22;5.40;;;2.47;;
6828;SDS011;17930;48.592;8.868;2022-08-21T09:09:07;3.83;;;2.57;;
6828;SDS011;17930;48.592;8.868;2022-08-21T09:12:02;4.57;;;2.53;;
6828;SDS011;17930;48.592;8.868;2022-08-21T09:14:50;7.37;;;2.70;;
6828;SDS011;17930;48.592;8.868;2022-08-21T09:17:36;3.83;;;2.90;;
6828;SDS011;17930;48.592;8.868;2022-08-21T09:20:28;4.67;;;2.13;;
6828;SDS011;17930;48.592;8.868;2022-08-21T09:23:07;5.70;;;2.73;;
6828;SDS011;17930;48.592;8.868;2022-08-21T09:25:45;5.87;;;2.53;;
6828;SDS011;17930;48.592;8.868;2022-08-21T09:28:21;5.30;;;2.30;;
6828;SDS011;17930;48.592;8.868;2022-08-21T09:30:49;3.93;;;2.47;;
6828;SDS011;17930;48.592;8.868;2022-08-21T09:33:20;3.60;;;2.30;;
6828;SDS011;17930;48.592;8.868;2022-08-21T09:35:48;4.93;;;2.60;;
6828;SDS011;17930;48.592;8.868;2022-08-21T09:38:25;4.13;;;2.13;;
6828;SDS011;17930;48.592;8.868;2022-08-21T09:40:56;4.68;;;2.30;;
6828;SDS011;17930;48.592;8.868;2022-08-21T09:43:25;3.17;;;2.38;;
6828;SDS011;17930;48.592;8.868;2022-08-21T09:46:02;4.05;;;2.53;;
6828;SDS011;17930;48.592;8.868;2022-08-21T09:48:38;3.65;;;2.35;;
6828;SDS011;17930;48.592;8.868;2022-08-21T09:51:12;3.40;;;2.40;;
6828;SDS011;17930;48.592;8.868;2022-08-21T09:53:42;5.07;;;2.47;;
6828;SDS011;17930;48.592;8.868;2022-08-21T09:56:17;5.70;;;2.37;;
6828;SDS011;17930;48.592;8.868;2022-08-21T09:59:13;4.13;;;2.30;;
6828;SDS011;17930;48.592;8.868;2022-08-21T10:01:47;4.37;;;2.60;;
6828;SDS011;17930;48.592;8.868;2022-08-21T10:04:19;7.47;;;2.80;;
6828;SDS011;17930;48.592;8.868;2022-08-21T10:06:47;4.10;;;2.47;;
6828;SDS011;17930;48.592;8.868;2022-08-21T10:09:14;5.27;;;2.60;;
6828;SDS011;17930;48.592;8.868;2022-08-21T10:11:52;5.50;;;2.97;;
6828;SDS011;17930;48.592;8.868;2022-08-21T10:14:31;6.63;;;2.50;;
6828;SDS011;17930;48.592;8.868;2022-08-21T10:17:14;5.43;;;2.33;;
6828;SDS011;17930;48.592;8.868;2022-08-21T10:19:48;4.10;;;2.10;;
6828;SDS011;17930;48.592;8.868;2022-08-21T10:22:23;3.70;;;2.53;;
6828;SDS011;17930;48.592;8.868;2022-08-21T10:25:00;6.10;;;1.87;;
6828;SDS011;17930;48.592;8.868;2022-08-21T10:27:37;3.73;;;1.97;;
6828;SDS011;17930;48.592;8.868;2022-08-21T10:30:17;4.13;;;2.03;;
6828;SDS011;17930;48.592;8.868;2022-08-21T10:32:59;5.37;;;2.40;;
6828;SDS011;17930;48.592;8.868;2022-08-21T10:35:35;5.43;;;2.50;;
6828;SDS011;17930;48.592;8.868;2022-08-21T10:38:25;3.13;;;2.17;;
6828;SDS011;17930;48.592;8.868;2022-08-21T10:41:09;6.70;;;2.70;;
6828;SDS011;17930;48.592;8.868;2022-08-21T10:43:52;4.13;;;2.20;;
6828;SDS011;17930;48.592;8.868;2022-08-21T10:46:37;4.07;;;2.50;;
6828;SDS011;17930;48.592;8.868;2022-08-21T10:49:16;3.73;;;2.30;;
6828;SDS011;17930;48.592;8.868;2022-08-21T10:51:50;4.40;;;2.47;;
6828;SDS011;17930;48.592;8.868;2022-08-21T10:54:31;2.93;;;2.20;;
6828;SDS011;17930;48.592;8.868;2022-08-21T10:57:09;5.17;;;2.70;;
6828;SDS011;17930;48.592;8.868;2022-08-21T10:59:44;3.17;;;2.40;;
6828;SDS011;17930;48.592;8.868;2022-08-21T11:02:15;3.90;;;2.20;;
6828;SDS011;17930;48.592;8.868;2022-08-21T11:04:57;8.67;;;2.80;;
6828;SDS011;17930;48.592;8.868;2022-08-21T11:07:30;3.08;;;2.30;;
6828;SDS011;17930;48.592;8.868;2022-08-21T11:10:03;3.50;;;2.10;;
6828;SDS011;17930;48.592;8.868;2022-08-21T11:12:38;2.80;;;2.25;;
6828;SDS011;17930;48.592;8.868;2022-08-21T11:15:11;4.63;;;2.42;;
6828;SDS011;17930;48.592;8.868;2022-08-21T11:17:51;4.30;;;2.65;;
6828;SDS011;17930;48.592;8.868;2022-08-21T11:20:38;3.37;;;2.57;;
6828;SDS011;17930;48.592;8.868;2022-08-21T11:23:14;4.70;;;2.47;;
6828;SDS011;17930;48.592;8.868;2022-08-21T11:25:52;4.63;;;2.20;;
6828;SDS011;17930;48.592;8.868;2022-08-21T11:28:29;4.00;;;2.23;;
6828;SDS011;17930;48.592;8.868;2022-08-21T11:31:09;4.93;;;2.27;;
6828;SDS011;17930;48.592;8.868;2022-08-21T11:33:57;4.30;;;2.57;;
6828;SDS011;17930;48.592;8.868;2022-08-21T11:36:37;3.97;;;2.17;;
6828;SDS011;17930;48.592;8.868;2022-08-21T11:39:11;4.70;;;2.50;;
6828;SDS011;17930;48.592;8.868;2022-08-21T11:41:49;4.70;;;2.40;;
6828;SDS011;17930;48.592;8.868;2022-08-21T11:44:22;3.93;;;2.20;;
6828;SDS011;17930;48.592;8.868;2022-08-21T11:46:57;5.17;;;2.57;;
6828;SDS011;17930;48.592;8.868;2022-08-21T11:49:39;3.97;;;2.17;;
6828;SDS011;17930;48.592;8.868;2022-08-21T11:52:18;3.60;;;2.60;;
6828;SDS011;17930;48.592;8.868;2022-08-21T11:54:52;4.93;;;2.33;;
6828;SDS011;17930;48.592;8.868;2022-08-21T11:57:24;4.50;;;2.40;;
6828;SDS011;17930;48.592;8.868;2022-08-21T11:59:58;5.72;;;2.20;;
6828;SDS011;17930;48.592;8.868;2022-08-21T12:02:28;5.60;;;2.85;;
6828;SDS011;17930;48.592;8.868;2022-08-21T12:04:59;3.93;;;2.40;;
6828;SDS011;17930;48.592;8.868;2022-08-21T12:07:32;3.17;;;2.23;;
6828;SDS011;17930;48.592;8.868;2022-08-21T12:10:02;2.63;;;2.13;;
6828;SDS011;17930;48.592;8.868;2022-08-21T12:12:32;4.45;;;2.28;;
6828;SDS011;17930;48.592;8.868;2022-08-21T12:15:05;3.45;;;2.10;;
6828;SDS011;17930;48.592;8.868;2022-08-21T12:17:59;5.03;;;2.33;;
6828;SDS011;17930;48.592;8.868;2022-08-21T12:20:36;4.38;;;2.38;;
6828;SDS011;17930;48.592;8.868;2022-08-21T12:23:16;3.03;;;2.15;;
6828;SDS011;17930;48.592;8.868;2022-08-21T12:25:59;3.90;;;2.22;;
6828;SDS011;17930;48.592;8.868;2022-08-21T12:28:37;4.68;;;2.35;;
6828;SDS011;17930;48.592;8.868;2022-08-21T12:31:04;3.33;;;2.10;;
6828;SDS011;17930;48.592;8.868;2022-08-21T12:33:47;5.13;;;2.33;;
6828;SDS011;17930;48.592;8.868;2022-08-21T12:36:20;2.47;;;2.15;;
6828;SDS011;17930;48.592;8.868;2022-08-21T12:38:54;4.05;;;2.10;;
6828;SDS011;17930;48.592;8.868;2022-08-21T12:41:25;3.03;;;2.00;;
6828;SDS011;17930;48.592;8.868;2022-08-21T12:43:56;2.75;;;2.03;;
6828;SDS011;17930;48.592;8.868;2022-08-21T12:46:27;6.03;;;2.20;;
6828;SDS011;17930;48.592;8.868;2022-08-21T12:49:01;4.95;;;2.20;;
6828;SDS011;17930;48.592;8.868;2022-08-21T12:51:36;3.78;;;2.08;;
6828;SDS011;17930;48.592;8.868;2022-08-21T12:57:04;3.15;;;2.22;;
6828;SDS011;17930;48.592;8.868;2022-08-21T12:59:32;5.30;;;2.13;;
6828;SDS011;17930;48.592;8.868;2022-08-21T13:02:03;2.40;;;1.95;;
6828;SDS011;17930;48.592;8.868;2022-08-21T13:04:42;5.15;;;2.10;;
6828;SDS011;17930;48.592;8.868;2022-08-21T13:07:11;2.70;;;2.15;;
6828;SDS011;17930;48.592;8.868;2022-08-21T13:09:43;2.63;;;2.15;;
6828;SDS011;17930;48.592;8.868;2022-08-21T13:12:15;3.20;;;1.73;;
6828;SDS011;17930;48.592;8.868;2022-08-21T13:14:44;3.53;;;2.10;;
6828;SDS011;17930;48.592;8.868;2022-08-21T13:17:13;2.90;;;2.15;;
6828;SDS011;17930;48.592;8.868;2022-08-21T13:19:42;4.70;;;2.07;;
6828;SDS011;17930;48.592;8.868;2022-08-21T13:22:19;3.50;;;2.03;;
6828;SDS011;17930;48.592;8.868;2022-08-21T13:24:48;4.68;;;2.25;;
6828;SDS011;17930;48.592;8.868;2022-08-21T13:27:18;5.05;;;2.30;;
6828;SDS011;17930;48.592;8.868;2022-08-21T13:30:00;2.55;;;2.00;;
6828;SDS011;17930;48.592;8.868;2022-08-21T13:32:33;3.25;;;1.92;;
6828;SDS011;17930;48.592;8.868;2022-08-21T13:35:10;4.40;;;2.35;;
6828;SDS011;17930;48.592;8.868;2022-08-21T13:37:42;2.97;;;2.15;;
6828;SDS011;17930;48.592;8.868;2022-08-21T13:40:13;4.30;;;2.40;;
6828;SDS011;17930;48.592;8.868;2022-08-21T13:42:43;2.73;;;2.00;;
6828;SDS011;17930;48.592;8.868;2022-08-21T13:45:14;2.90;;;1.83;;
6828;SDS011;17930;48.592;8.868;2022-08-21T13:47:43;3.43;;;2.00;;
6828;SDS011;17930;48.592;8.868;2022-08-21T13:50:13;2.57;;;1.73;;
6828;SDS011;17930;48.592;8.868;2022-08-21T13:52:54;3.38;;;1.80;;
6828;SDS011;17930;48.592;8.868;2022-08-21T13:55:24;2.92;;;1.85;;
6828;SDS011;17930;48.592;8.868;2022-08-21T13:57:58;4.97;;;2.10;;
6828;SDS011;17930;48.592;8.868;2022-08-21T14:00:27;2.53;;;1.90;;
6828;SDS011;17930;48.592;8.868;2022-08-21T14:02:59;3.53;;;2.10;;
6828;SDS011;17930;48.592;8.868;2022-08-21T14:05:32;4.20;;;2.47;;
6828;SDS011;17930;48.592;8.868;2022-08-21T14:08:03;2.77;;;2.10;;
6828;SDS011;17930;48.592;8.868;2022-08-21T14:10:35;3.03;;;2.23;;
6828;SDS011;17930;48.592;8.868;2022-08-21T14:13:07;3.60;;;2.40;;
6828;SDS011;17930;48.592;8.868;2022-08-21T14:15:44;2.93;;;2.17;;
6828;SDS011;17930;48.592;8.868;2022-08-21T14:18:23;8.20;;;3.73;;
6828;SDS011;17930;48.592;8.868;2022-08-21T14:20:51;2.80;;;2.00;;
6828;SDS011;17930;48.592;8.868;2022-08-21T14:23:23;4.07;;;1.93;;
6828;SDS011;17930;48.592;8.868;2022-08-21T14:25:52;3.70;;;2.00;;
6828;SDS011;17930;48.592;8.868;2022-08-21T14:28:26;4.83;;;2.00;;
6828;SDS011;17930;48.592;8.868;2022-08-21T14:30:54;5.53;;;2.10;;
6828;SDS011;17930;48.592;8.868;2022-08-21T14:33:24;2.70;;;2.03;;
6828;SDS011;17930;48.592;8.868;2022-08-21T14:35:53;4.50;;;2.20;;
6828;SDS011;17930;48.592;8.868;2022-08-21T14:38:21;4.13;;;1.83;;
6828;SDS011;17930;48.592;8.868;2022-08-21T14:40:50;4.30;;;2.07;;
6828;SDS011;17930;48.592;8.868;2022-08-21T14:43:23;2.33;;;1.83;;
6828;SDS011;17930;48.592;8.868;2022-08-21T14:45:52;3.47;;;2.23;;
6828;SDS011;17930;48.592;8.868;2022-08-21T14:48:20;4.93;;;2.13;;
6828;SDS011;17930;48.592;8.868;2022-08-21T14:50:47;2.70;;;2.13;;
6828;SDS011;17930;48.592;8.868;2022-08-21T14:53:14;2.50;;;2.27;;
6828;SDS011;17930;48.592;8.868;2022-08-21T14:55:41;3.57;;;2.33;;
6828;SDS011;17930;48.592;8.868;2022-08-21T14:58:26;2.27;;;1.93;;
6828;SDS011;17930;48.592;8.868;2022-08-21T15:00:53;5.37;;;2.30;;
6828;SDS011;17930;48.592;8.868;2022-08-21T15:03:23;2.83;;;2.23;;
6828;SDS011;17930;48.592;8.868;2022-08-21T15:05:52;3.03;;;2.40;;
6828;SDS011;17930;48.592;8.868;2022-08-21T15:08:19;3.53;;;2.30;;
6828;SDS011;17930;48.592;8.868;2022-08-21T15:10:45;4.40;;;2.10;;
6828;SDS011;17930;48.592;8.868;2022-08-21T15:13:13;4.53;;;2.20;;
6828;SDS011;17930;48.592;8.868;2022-08-21T15:15:42;4.00;;;2.43;;
6828;SDS011;17930;48.592;8.868;2022-08-21T15:18:11;4.07;;;2.00;;
6828;SDS011;17930;48.592;8.868;2022-08-21T15:20:38;3.87;;;2.17;;
6828;SDS011;17930;48.592;8.868;2022-08-21T15:23:06;5.13;;;2.00;;
6828;SDS011;17930;48.592;8.868;2022-08-21T15:25:34;4.13;;;2.50;;
6828;SDS011;17930;48.592;8.868;2022-08-21T15:28:02;3.80;;;2.30;;
6828;SDS011;17930;48.592;8.868;2022-08-21T15:30:29;3.23;;;2.00;;
6828;SDS011;17930;48.592;8.868;2022-08-21T15:32:58;4.27;;;2.20;;
6828;SDS011;17930;48.592;8.868;2022-08-21T15:35:25;3.20;;;1.93;;